createdAt,value
2023-11-04T00:01:59.732Z,9.13
2023-11-04T00:05:02.431Z,9.12
2023-11-04T00:08:06.009Z,9.11
2023-11-04T00:11:08.752Z,9.10
2023-11-04T00:14:11.094Z,9.09
2023-11-04T00:17:14.363Z,9.10
2023-11-04T00:20:16.728Z,9.05
2023-11-04T00:23:19.413Z,9.12
2023-11-04T00:26:21.891Z,9.15
2023-11-04T00:29:26.640Z,9.18
2023-11-04T00:32:29.558Z,9.23
2023-11-04T00:35:32.273Z,9.28
2023-11-04T00:38:34.642Z,9.33
2023-11-04T00:41:37.324Z,9.30
2023-11-04T00:44:40.017Z,9.15
2023-11-04T00:47:42.705Z,9.31
2023-11-04T00:50:45.179Z,9.20
2023-11-04T00:53:47.886Z,9.20
2023-11-04T00:56:50.265Z,9.28
2023-11-04T00:59:53.897Z,9.27
2023-11-04T01:02:57.036Z,9.11
2023-11-04T01:05:59.945Z,9.26
2023-11-04T01:09:04.189Z,9.12
2023-11-04T01:12:08.058Z,9.22
2023-11-04T01:15:10.858Z,9.09
2023-11-04T01:18:13.851Z,9.26
2023-11-04T01:21:17.883Z,9.12
2023-11-04T01:24:20.625Z,9.20
2023-11-04T01:27:23.119Z,9.17
2023-11-04T01:30:25.823Z,9.13
2023-11-04T01:33:28.807Z,8.94
2023-11-04T01:36:31.650Z,8.80
2023-11-04T01:39:34.898Z,9.06
2023-11-04T01:42:42.936Z,8.70
2023-11-04T01:45:45.468Z,8.89
2023-11-04T01:48:48.787Z,8.94
2023-11-04T01:51:52.918Z,9.08
2023-11-04T01:54:55.859Z,8.98
2023-11-04T01:58:01.806Z,9.09
2023-11-04T02:01:05.393Z,9.10
2023-11-04T02:04:08.200Z,9.21
2023-11-04T02:07:10.651Z,9.20
2023-11-04T02:10:14.642Z,9.21
2023-11-04T02:13:17.026Z,9.20
2023-11-04T02:16:19.984Z,9.03
2023-11-04T02:19:22.537Z,9.12
2023-11-04T02:22:26.029Z,9.03
2023-11-04T02:25:35.858Z,9.19
2023-11-04T02:28:38.507Z,9.01
2023-11-04T02:31:40.910Z,9.15
2023-11-04T02:34:43.710Z,9.04
2023-11-04T02:37:48.655Z,9.20
2023-11-04T02:40:51.412Z,9.21
2023-11-04T02:43:54.674Z,9.17
2023-11-04T02:47:01.094Z,9.02
2023-11-04T02:50:03.572Z,9.12
2023-11-04T02:53:06.324Z,9.07
2023-11-04T02:56:09.401Z,8.97
2023-11-04T02:59:12.133Z,8.94
2023-11-04T03:02:15.492Z,9.15
2023-11-04T03:05:27.528Z,9.15
2023-11-04T03:08:35.311Z,9.14
2023-11-04T03:11:38.027Z,9.14
2023-11-04T03:14:44.602Z,9.16
2023-11-04T03:17:47.348Z,9.17
2023-11-04T03:20:49.828Z,9.17
2023-11-04T03:23:52.648Z,9.05
2023-11-04T03:26:56.267Z,9.04
2023-11-04T03:29:58.882Z,9.18
2023-11-04T03:33:03.107Z,9.25
2023-11-04T03:36:06.066Z,9.27
2023-11-04T03:39:10.121Z,9.28
2023-11-04T03:42:12.795Z,9.29
2023-11-04T03:45:15.861Z,9.28
2023-11-04T03:48:19.063Z,9.32
2023-11-04T03:51:24.149Z,9.35
2023-11-04T03:54:26.810Z,9.32
2023-11-04T03:57:29.217Z,9.36
2023-11-04T04:00:32.853Z,9.36
2023-11-04T04:03:35.565Z,9.23
2023-11-04T04:06:38.098Z,9.16
2023-11-04T04:09:41.062Z,9.30
2023-11-04T04:12:43.425Z,9.11
2023-11-04T04:15:46.368Z,9.33
2023-11-04T04:18:49.014Z,9.25
2023-11-04T04:21:51.736Z,9.32
2023-11-04T04:24:54.396Z,9.27
2023-11-04T04:27:57.607Z,9.12
2023-11-04T04:31:00.149Z,9.09
2023-11-04T04:34:02.910Z,9.23
2023-11-04T04:37:05.346Z,9.20
2023-11-04T04:40:08.826Z,9.24
2023-11-04T04:43:11.200Z,9.05
2023-11-04T04:46:13.889Z,9.21
2023-11-04T04:49:16.495Z,8.72
2023-11-04T04:52:19.304Z,9.28
2023-11-04T04:55:28.310Z,9.30
2023-11-04T04:58:41.609Z,9.32
2023-11-04T05:02:00.752Z,9.33
2023-11-04T05:05:12.243Z,9.31
2023-11-04T05:08:21.209Z,9.34
2023-11-04T05:11:34.395Z,9.37
2023-11-04T05:14:40.709Z,8.87
2023-11-04T05:17:55.004Z,9.36
2023-11-04T05:21:34.798Z,8.84
2023-11-04T05:24:41.039Z,9.32
2023-11-04T05:27:43.821Z,9.14
2023-11-04T05:30:46.611Z,9.27
2023-11-04T05:33:49.148Z,9.14
2023-11-04T05:36:54.012Z,9.12
2023-11-04T05:39:56.547Z,9.07
2023-11-04T05:42:59.707Z,9.22
2023-11-04T05:46:05.176Z,9.20
2023-11-04T05:49:07.947Z,9.04
2023-11-04T05:52:10.343Z,9.16
2023-11-04T05:55:13.577Z,9.16
2023-11-04T05:58:15.985Z,9.13
2023-11-04T06:01:24.439Z,9.15
2023-11-04T06:04:27.300Z,9.14
2023-11-04T06:07:30.363Z,9.00
2023-11-04T06:10:33.117Z,9.14
2023-11-04T06:13:36.002Z,9.02
2023-11-04T06:16:38.808Z,9.14
2023-11-04T06:19:41.241Z,9.25
2023-11-04T06:22:44.027Z,9.10
2023-11-04T06:25:46.416Z,9.24
2023-11-04T06:28:49.442Z,9.25
2023-11-04T06:31:51.889Z,9.01
2023-11-04T06:34:54.554Z,9.30
2023-11-04T06:37:56.992Z,9.38
2023-11-04T06:41:00.084Z,9.30
2023-11-04T06:44:02.437Z,9.38
2023-11-04T06:47:06.722Z,9.42
2023-11-04T06:50:09.896Z,9.35
2023-11-04T06:53:14.001Z,9.46
2023-11-04T06:56:16.492Z,9.34
2023-11-04T06:59:20.260Z,9.41
2023-11-04T07:02:22.601Z,9.46
2023-11-04T07:05:25.875Z,9.45
2023-11-04T07:08:28.220Z,9.49
2023-11-04T07:11:33.428Z,9.26
2023-11-04T07:14:35.899Z,9.41
2023-11-04T07:17:39.152Z,9.43
2023-11-04T07:20:42.581Z,9.35
2023-11-04T07:23:45.764Z,9.53
2023-11-04T07:26:48.166Z,9.37
2023-11-04T07:29:51.132Z,9.36
2023-11-04T07:32:54.477Z,9.29
2023-11-04T07:35:57.763Z,9.43
2023-11-04T07:39:00.304Z,9.49
2023-11-04T07:42:02.952Z,9.43
2023-11-04T07:45:05.949Z,9.47
2023-11-04T07:48:12.360Z,9.34
2023-11-04T07:51:14.980Z,9.47
2023-11-04T07:54:18.167Z,9.47
2023-11-04T07:57:20.754Z,9.66
2023-11-04T08:00:23.488Z,9.75
2023-11-04T08:03:27.428Z,9.85
2023-11-04T08:06:29.999Z,9.84
2023-11-04T08:09:32.776Z,9.75
2023-11-04T08:12:35.477Z,9.83
2023-11-04T08:15:39.627Z,9.96
2023-11-04T08:18:42.167Z,10.09
2023-11-04T08:21:45.645Z,10.37
2023-11-04T08:24:49.065Z,10.43
2023-11-04T08:27:51.778Z,10.43
2023-11-04T08:30:54.443Z,10.53
2023-11-04T08:33:59.471Z,10.68
2023-11-04T08:37:02.877Z,10.75
2023-11-04T08:40:06.324Z,10.95
2023-11-04T08:43:08.826Z,11.00
2023-11-04T08:46:13.928Z,11.01
2023-11-04T08:49:16.352Z,11.05
2023-11-04T08:52:19.140Z,11.21
2023-11-04T08:55:21.683Z,11.60
2023-11-04T08:58:24.321Z,13.21
2023-11-04T09:01:26.778Z,15.00
2023-11-04T09:04:29.699Z,16.43
2023-11-04T09:07:32.182Z,17.09
2023-11-04T09:10:34.894Z,18.44
2023-11-04T09:13:38.395Z,20.29
2023-11-04T09:16:41.107Z,21.08
2023-11-04T09:19:43.592Z,23.26
2023-11-04T09:22:46.950Z,23.73
2023-11-04T09:25:50.341Z,24.53
2023-11-04T09:28:54.440Z,25.53
2023-11-04T09:31:57.709Z,26.87
2023-11-04T09:35:01.356Z,26.57
2023-11-04T09:38:05.845Z,27.15
2023-11-04T09:41:08.548Z,26.43
2023-11-04T09:44:11.968Z,25.99
2023-11-04T09:47:15.652Z,25.47
2023-11-04T09:50:18.202Z,25.17
2023-11-04T09:53:27.657Z,25.89
2023-11-04T09:56:30.034Z,24.36
2023-11-04T09:59:34.767Z,22.45
2023-11-04T10:02:37.480Z,22.14
2023-11-04T10:05:40.959Z,21.92
2023-11-04T10:08:48.137Z,22.21
2023-11-04T10:11:51.676Z,22.37
2023-11-04T10:14:54.068Z,22.31
2023-11-04T10:17:57.565Z,21.77
2023-11-04T10:21:01.281Z,21.36
2023-11-04T10:24:06.167Z,21.13
2023-11-04T10:27:08.574Z,20.85
2023-11-04T10:30:12.007Z,20.68
2023-11-04T10:33:18.474Z,20.41
2023-11-04T10:36:22.987Z,20.23
2023-11-04T10:39:28.856Z,20.04
2023-11-04T10:42:32.687Z,19.79
2023-11-04T10:45:38.334Z,19.83
2023-11-04T10:48:51.592Z,20.10
2023-11-04T10:52:10.051Z,19.54
2023-11-04T10:55:14.252Z,19.81
2023-11-04T10:58:28.957Z,19.86
2023-11-04T11:01:33.150Z,19.59
2023-11-04T11:04:37.188Z,19.56
2023-11-04T11:07:44.787Z,19.45
2023-11-04T11:10:57.706Z,19.34
2023-11-04T11:14:02.889Z,19.17
2023-11-04T11:17:09.104Z,19.31
2023-11-04T11:20:36.855Z,18.67
2023-11-04T11:23:48.312Z,19.06
2023-11-04T11:27:01.306Z,19.22
2023-11-04T11:30:05.709Z,19.37
2023-11-04T11:33:09.226Z,19.57
2023-11-04T11:36:17.801Z,19.07
2023-11-04T11:39:21.571Z,19.08
2023-11-04T11:42:28.415Z,18.88
2023-11-04T11:45:31.268Z,19.24
2023-11-04T11:48:39.708Z,19.30
2023-11-04T11:51:43.947Z,19.45
2023-11-04T11:54:46.278Z,19.16
2023-11-04T11:57:48.939Z,18.95
2023-11-04T12:00:52.004Z,18.81
2023-11-04T12:03:55.363Z,19.23
2023-11-04T12:06:59.142Z,18.74
2023-11-04T12:10:02.250Z,18.63
2023-11-04T12:13:04.911Z,18.17
2023-11-04T12:16:10.186Z,17.88
2023-11-04T12:19:14.705Z,17.75
2023-11-04T12:22:17.521Z,17.98
2023-11-04T12:25:20.033Z,19.15
2023-11-04T12:28:24.313Z,20.53
2023-11-04T12:31:30.254Z,20.96
2023-11-04T12:34:33.077Z,20.90
2023-11-04T12:37:36.132Z,21.72
2023-11-04T12:40:43.927Z,21.86
2023-11-04T12:43:46.916Z,21.32
2023-11-04T12:46:51.406Z,21.76
2023-11-04T12:49:54.222Z,21.13
2023-11-04T12:53:02.296Z,20.24
2023-11-04T12:56:05.311Z,20.48
2023-11-04T12:59:08.390Z,20.42
2023-11-04T13:02:11.079Z,20.35
2023-11-04T13:05:14.074Z,20.15
2023-11-04T13:08:16.640Z,19.32
2023-11-04T13:11:19.339Z,18.65
2023-11-04T13:14:21.746Z,17.46
2023-11-04T13:17:25.472Z,17.29
2023-11-04T13:20:28.010Z,16.95
2023-11-04T13:23:30.754Z,16.66
2023-11-04T13:26:33.141Z,15.85
2023-11-04T13:29:35.873Z,15.40
2023-11-04T13:32:38.647Z,15.44
2023-11-04T13:35:41.760Z,15.31
2023-11-04T13:38:44.610Z,15.09
2023-11-04T13:41:47.332Z,15.08
2023-11-04T13:44:49.793Z,14.78
2023-11-04T13:47:52.686Z,14.65
2023-11-04T13:50:55.105Z,14.32
2023-11-04T13:53:57.788Z,14.33
2023-11-04T13:57:00.130Z,13.99
2023-11-04T14:00:02.861Z,13.99
2023-11-04T14:03:07.166Z,13.79
2023-11-04T14:06:10.077Z,13.72
2023-11-04T14:09:12.600Z,13.51
2023-11-04T14:12:15.249Z,13.55
2023-11-04T14:15:20.341Z,13.39
2023-11-04T14:18:23.190Z,13.39
2023-11-04T14:21:25.728Z,13.38
2023-11-04T14:24:28.348Z,13.30
2023-11-04T14:27:31.563Z,13.19
2023-11-04T14:30:34.330Z,13.14
2023-11-04T14:33:36.790Z,13.19
2023-11-04T14:36:41.600Z,13.16
2023-11-04T14:39:44.462Z,13.03
2023-11-04T14:42:48.041Z,13.09
2023-11-04T14:45:50.512Z,13.14
2023-11-04T14:48:53.964Z,13.09
2023-11-04T14:51:56.404Z,13.00
2023-11-04T14:54:59.672Z,12.87
2023-11-04T14:58:02.212Z,12.82
2023-11-04T15:01:05.095Z,12.84
2023-11-04T15:04:08.011Z,12.59
2023-11-04T15:07:11.939Z,12.73
2023-11-04T15:10:14.337Z,12.65
2023-11-04T15:13:17.051Z,12.39
2023-11-04T15:16:19.509Z,12.35
2023-11-04T15:19:22.275Z,12.57
2023-11-04T15:22:30.943Z,12.51
2023-11-04T15:25:33.628Z,12.35
2023-11-04T15:28:36.143Z,12.32
2023-11-04T15:31:39.443Z,12.34
2023-11-04T15:34:45.831Z,12.10
2023-11-04T15:37:48.507Z,12.25
2023-11-04T15:40:50.877Z,12.11
2023-11-04T15:43:53.501Z,12.21
2023-11-04T15:46:56.219Z,12.06
2023-11-04T15:50:01.583Z,12.20
2023-11-04T15:53:04.108Z,12.00
2023-11-04T15:56:07.426Z,11.96
2023-11-04T15:59:10.169Z,12.02
2023-11-04T16:02:12.898Z,11.93
2023-11-04T16:05:15.994Z,11.77
2023-11-04T16:08:18.534Z,11.80
2023-11-04T16:11:21.632Z,11.82
2023-11-04T16:14:24.012Z,11.55
2023-11-04T16:17:27.011Z,11.60
2023-11-04T16:20:29.514Z,11.43
2023-11-04T16:23:32.824Z,11.57
2023-11-04T16:26:35.610Z,11.55
2023-11-04T16:29:38.473Z,11.51
2023-11-04T16:32:41.232Z,11.39
2023-11-04T16:35:44.128Z,11.47
2023-11-04T16:38:46.922Z,11.38
2023-11-04T16:41:49.602Z,11.35
2023-11-04T16:44:52.032Z,11.30
2023-11-04T16:47:54.882Z,11.33
2023-11-04T16:50:57.701Z,11.27
2023-11-04T16:54:01.113Z,11.04
2023-11-04T16:57:06.009Z,11.26
2023-11-04T17:00:10.941Z,11.09
2023-11-04T17:03:13.506Z,10.98
2023-11-04T17:06:16.290Z,11.07
2023-11-04T17:09:19.984Z,11.04
2023-11-04T17:12:23.846Z,11.04
2023-11-04T17:15:26.254Z,11.06
2023-11-04T17:18:29.033Z,11.01
2023-11-04T17:21:32.799Z,10.97
2023-11-04T17:24:35.626Z,10.90
2023-11-04T17:27:38.776Z,10.87
2023-11-04T17:30:42.141Z,10.85
2023-11-04T17:33:46.152Z,10.85
2023-11-04T17:36:51.449Z,10.87
2023-11-04T17:39:54.108Z,10.86
2023-11-04T17:43:00.029Z,10.86
2023-11-04T17:46:02.393Z,10.84
2023-11-04T17:49:07.818Z,10.79
2023-11-04T17:52:10.205Z,10.68
2023-11-04T17:55:12.849Z,10.68
2023-11-04T17:58:15.247Z,10.59
2023-11-04T18:01:17.810Z,10.62
2023-11-04T18:04:21.873Z,10.66
2023-11-04T18:07:31.246Z,10.50
2023-11-04T18:10:44.436Z,10.45
2023-11-04T18:13:46.834Z,10.35
2023-11-04T18:16:52.489Z,10.38
2023-11-04T18:19:57.213Z,10.35
2023-11-04T18:22:59.918Z,10.26
2023-11-04T18:26:05.176Z,10.20
2023-11-04T18:29:07.635Z,10.25
2023-11-04T18:32:10.972Z,10.26
2023-11-04T18:35:14.301Z,10.25
2023-11-04T18:38:16.544Z,10.21
2023-11-04T18:41:19.156Z,10.21
2023-11-04T18:44:21.701Z,10.22
2023-11-04T18:47:25.136Z,10.26
2023-11-04T18:50:30.830Z,10.27
2023-11-04T18:53:33.657Z,10.27
2023-11-04T18:56:35.863Z,10.21
2023-11-04T18:59:38.388Z,10.19
2023-11-04T19:02:40.695Z,10.21
2023-11-04T19:05:43.356Z,10.13
2023-11-04T19:08:45.505Z,10.07
2023-11-04T19:11:48.175Z,10.02
2023-11-04T19:14:53.116Z,10.02
2023-11-04T19:17:55.582Z,10.01
2023-11-04T19:20:57.809Z,9.97
2023-11-04T19:24:00.474Z,9.94
2023-11-04T19:27:02.582Z,9.83
2023-11-04T19:30:06.156Z,9.80
2023-11-04T19:33:08.445Z,9.75
2023-11-04T19:36:11.173Z,9.71
2023-11-04T19:39:13.392Z,9.60
2023-11-04T19:42:15.826Z,9.66
2023-11-04T19:45:22.912Z,9.64
2023-11-04T19:48:26.546Z,9.64
2023-11-04T19:51:28.742Z,9.64
2023-11-04T19:54:31.223Z,9.63
2023-11-04T19:57:33.401Z,9.59
2023-11-04T20:00:36.311Z,9.40
2023-11-04T20:03:39.020Z,9.43
2023-11-04T20:06:41.218Z,9.37
2023-11-04T20:09:45.199Z,9.40
2023-11-04T20:12:49.498Z,9.46
2023-11-04T20:15:51.987Z,9.38
2023-11-04T20:18:54.300Z,9.34
2023-11-04T20:21:58.046Z,9.29
2023-11-04T20:25:00.541Z,9.24
2023-11-04T20:28:03.162Z,9.21
2023-11-04T20:31:05.648Z,9.26
2023-11-04T20:34:09.452Z,9.23
2023-11-04T20:37:12.054Z,9.20
2023-11-04T20:40:15.822Z,9.22
2023-11-04T20:43:18.088Z,9.20
2023-11-04T20:46:20.616Z,9.26
2023-11-04T20:49:24.024Z,9.26
2023-11-04T20:52:26.449Z,9.21
2023-11-04T20:55:31.831Z,9.20
2023-11-04T20:58:36.359Z,9.18
2023-11-04T21:01:39.315Z,8.98
2023-11-04T21:04:42.530Z,9.02
2023-11-04T21:07:44.837Z,8.95
2023-11-04T21:10:54.301Z,8.95
2023-11-04T21:14:05.867Z,8.87
2023-11-04T21:17:14.492Z,8.90
2023-11-04T21:20:16.762Z,8.88
2023-11-04T21:23:21.005Z,8.86
2023-11-04T21:26:23.553Z,8.72
2023-11-04T21:29:25.962Z,8.72
2023-11-04T21:32:28.165Z,8.72
2023-11-04T21:35:30.650Z,8.77
2023-11-04T21:38:32.982Z,8.78
2023-11-04T21:41:35.444Z,8.82
2023-11-04T21:44:38.287Z,8.82
2023-11-04T21:47:40.775Z,8.81
2023-11-04T21:50:43.120Z,8.81
2023-11-04T21:53:45.588Z,8.74
2023-11-04T21:56:47.775Z,8.73
2023-11-04T21:59:52.712Z,8.65
2023-11-04T22:02:55.359Z,8.68
2023-11-04T22:05:57.815Z,8.66
2023-11-04T22:09:01.586Z,8.66
2023-11-04T22:12:04.162Z,8.68
2023-11-04T22:15:08.837Z,8.67
2023-11-04T22:18:11.542Z,8.69
2023-11-04T22:21:17.345Z,8.70
2023-11-04T22:24:21.259Z,8.65
2023-11-04T22:27:24.467Z,8.62
2023-11-04T22:30:26.935Z,8.62
2023-11-04T22:33:29.128Z,8.54
2023-11-04T22:36:31.612Z,8.56
2023-11-04T22:39:33.710Z,8.60
2023-11-04T22:42:36.221Z,8.49
2023-11-04T22:45:38.389Z,8.57
2023-11-04T22:48:40.966Z,8.53
2023-11-04T22:51:43.467Z,8.53
2023-11-04T22:54:45.891Z,8.52
2023-11-04T22:57:48.059Z,8.55
2023-11-04T23:00:52.969Z,8.52
2023-11-04T23:03:56.045Z,8.55
2023-11-04T23:06:58.590Z,8.59
2023-11-04T23:10:00.767Z,8.59
2023-11-04T23:13:03.235Z,8.62
2023-11-04T23:16:05.705Z,8.66
2023-11-04T23:19:09.120Z,8.60
2023-11-04T23:22:11.414Z,8.64
2023-11-04T23:25:20.701Z,8.65
2023-11-04T23:28:24.008Z,8.70
2023-11-04T23:31:27.378Z,8.79
2023-11-04T23:34:29.670Z,8.75
2023-11-04T23:37:32.125Z,8.79
2023-11-04T23:40:35.684Z,8.82
2023-11-04T23:43:38.130Z,8.85
2023-11-04T23:46:40.395Z,8.85
2023-11-04T23:49:46.115Z,8.89
2023-11-04T23:52:48.331Z,8.80
2023-11-04T23:55:51.192Z,8.90
2023-11-04T23:58:53.439Z,8.91
